Accueil
METAR-TAF:

METAR-TAF

Aéroports :

Ostende, Belgique

Aéroport d'Ostende-Bruges

latitude: 51-12N, longitude: 002-52E, altitude: 4 m

Observation

Le bulletin a été fait il y a 14 minutes, à 01:50 UTC
Vent 6 kt de sud/sud-ouest
Température 9°C
Humidité 93%
Pression 1021 hPa
Visibilité: 7000 m
Nuages fragmentés à une hauteur de 3200 ft

METAR: EBOS 200150Z 21006KT 7000 BKN032 09/08 Q1021 BECMG 4000 BR

Heure: 04:04 (02:04 UTC)

Prévision

Le bulletin a été fait il y a 3 heures et 2 minutes, à 23:02 UTC
Prévision valable du 20 à 00 UTC au 21 à 06 UTC
Vent 7 kt de sud-ouest
Visibilité 10 km ou plus
Quelques nuages à une hauteur de 2500 ft
Nuages épars à une hauteur de 4500 ft

TAF: EBOS 192302Z 2000/2106 23007KT 9999 FEW025 SCT045

Observations et prévisions météorologiques de plus de 4000 aéroports (messages METAR et TAF).

Les stations disponibles sont représentées par des disques jaunes et rouges sur la carte.

Passer la souris dessus pour voir le nom de la station.

Cliquer dessus pour voir les observations et prévisions météorologiques.

Pour changer de carte: cliquez sur les boutons verts avec une croix noire pour zoomer, sur le bouton vert avec un tiret pour effectuer un zoom arrière, ou sur les flèches vertes pour les cartes adjacentes.


METAR-TAF: